Barcroft Research Lab Weather observations

Data are for 10 minute period ending at time listed.
 Day   Time   Solar   Ave.   Ave.  Ave.  Vector  Std.   Max.    Baro.    
  of    of     Rad.   Air    Rel.  Wind   Wind   Dev.   Wind   Press.    
Year   Day            Temp.  Hum.  Speed  Dir.   Dir.   Gust            
2014   (PST)  Kw/m2    F      %     mph   deg.   deg.    mph     mb.    
------------------------------------------------------------------------
 213    0:00       0   43.0    73    1.9    49    -99     3.7   652.40  
 213    0:10       0   42.9    74    1.0    33    -99     2.9   652.10  
 213    0:20       0   42.9    74    1.8    25    -99     3.4   652.10  
 213    0:30       0   43.1    74    2.6    26    -99     6.0   652.10  
 213    0:40       0   43.3    74    3.5    17    -99     5.3   652.10  
 213    0:50       0   43.3    74    3.0    20    -99     5.7   652.10  
 213    1:00       0   43.2    74    2.0    14    -99     3.4   652.10  
 213    1:10       0   42.7    76    2.5   359    -99     3.6   651.90  
 213    1:20       0   42.4    76    2.9   360    -99     5.2   651.90  
 213    1:30       0   42.9    74    2.5    22    -99     5.4   651.90  
 213    1:40       0   42.5    76    3.3    17    -99     5.1   651.90  
 213    1:50       0   42.6    75    2.5     8    -99     5.6   651.90  
 213    2:00       0   42.5    75    2.3    20    -99     4.0   651.90  
 213    2:10       0   42.6    75    2.6    10    -99     4.8   651.80  
 213    2:20       0   42.5    75    2.7    22    -99     4.8   651.80  
 213    2:30       0   42.4    76    2.5    23    -99     3.8   651.80  
 213    2:40       0   42.3    76    2.7    18    -99     4.0   651.80  
 213    2:50       0   42.1    76    2.0    14    -99     3.4   651.80  
 213    3:00       0   42.0    77    2.0    18    -99     3.7   651.80  
 213    3:10       0   42.5    75    2.9    31    -99     5.7   651.90  
 213    3:20       0   42.3    75    1.3    24    -99     3.1   651.90  
 213    3:30       0   42.1    76    1.8    27    -99     3.1   651.90  
 213    3:40       1   42.2    75    2.1    22    -99     3.1   651.90  
 213    3:50       3   41.9    76    1.0   358    -99     2.2   651.90  
 213    4:00      11   41.7    76    0.7   341    -99     1.8   651.90  
 213    4:10      22   42.6    73    0.8    28    -99     2.0   652.00  
 213    4:20      45   43.3    72    0.6   346    -99     1.8   652.00  
 213    4:30      33   43.2    73    0.5   304    -99     1.4   652.00  
 213    4:40      33   42.5    74    0.3    64    -99     1.8   652.00  
 213    4:50      33   42.7    73    0.9    55    -99     2.6   652.00  
 213    5:00      36   43.1    72    0.9    77    -99     2.3   652.00  
 213    5:10      39   42.9    73    0.1   103    -99     1.9   652.00  
 213    5:20      62   42.9    74    1.0   126    -99     2.6   652.00  
 213    5:30      58   43.6    73    0.4   115    -99     1.7   652.00  
 213    5:40     119   44.4    71    0.8   112    -99     2.7   652.00  
 213    5:50     333   47.2    66    3.0   111    -99     6.4   652.00  
 213    6:00     401   49.6    62    4.8   115    -99     6.7   652.00  
 213    6:10     434   51.2    58    6.0   129    -99     9.3   652.20  
 213    6:20     421   50.8    59    7.0   122    -99     9.6   652.20  
 213    6:30     490   51.3    60    6.4   126    -99     9.8   652.20  
 213    6:40     453   51.2    61    8.2   132    -99    12.3   652.20  
 213    6:50     569   51.6    60    8.2   139    -99    12.6   652.20  
 213    7:00     605   52.0    60    8.5   127    -99    14.0   652.20  
 213    7:10     383   52.4    60    8.5   133    -99    14.0   652.30  
 213    7:20     342   52.4    61    8.7   139    -99    13.4   652.30  
 213    7:30     407   52.1    62    8.0   142    -99    15.1   652.30  
 213    7:40     675   52.3    61    9.6   140    -99    21.9   652.30  
 213    7:50     508   52.1    62    8.8   134    -99    14.0   652.30  
 213    8:00     263   51.1    63    6.3   151    -99    11.5   652.30  
 213    8:10     761   52.1    62   10.1   167    -99    16.7   652.50  
 213    8:20     643   52.1    61    8.4   151    -99    13.9   652.50  
 213    8:30     574   52.5    60    8.8   170    -99    15.8   652.50  
 213    8:40     638   51.8    59    6.2   182    -99    12.2   652.50  
 213    8:50     930   52.1    58    7.1   166    -99    12.9   652.50  
 213    9:00     851   53.4    53    6.5   186    -99    15.6   652.50  
 213    9:10     673   52.5    56    5.8   186    -99    11.3   652.80  
 213    9:20    1041   53.6    53    8.2   170    -99    17.1   652.80  
 213    9:30     995   54.8    51    7.1   179    -99    15.8   652.80  
 213    9:40     981   54.2    48    7.5   203    -99    15.3   652.80  
 213    9:50    1064   54.0    46    6.9   205    -99    15.3   652.80  
 213   10:00    1033   54.2    44    7.4   187    -99    15.8   652.80  
 213   10:10     960   55.2    44    7.8   178    -99    15.6   652.80  
 213   10:20     778   54.8    45    6.1   179    -99    16.9   652.80  
 213   10:30    1038   54.9    48    6.4   174    -99    14.5   652.80  
 213   10:40     619   55.9    44    6.4   186    -99    14.1   652.80  
 213   10:50     631   53.8    47    5.8   237    -99    13.8   652.80  
 213   11:00     561   54.4    47    6.7   190    -99    15.6   652.80  
 213   11:10     530   53.9    49    5.0   198    -99    10.7   652.80  
 213   11:20     538   54.0    46    7.8   239    -99    14.0   652.80  
 213   11:30    1032   55.1    45    5.6   229    -99    15.3   652.80  
 213   11:40     375   54.4    43    4.0   240    -99    14.0   652.80  
 213   11:50     567   54.9    46    6.3   247    -99    12.1   652.80  
 213   12:00     458   54.3    48    7.5   242    -99    15.9   652.80  
 213   12:10     858   55.2    43    7.7   212    -99    13.4   652.70  
 213   12:20     813   55.5    42    7.2   255    -99    16.9   652.70  
 213   12:30     515   55.3    43    6.6   267    -99    16.4   652.70  
 213   12:40     502   55.2    46    8.1   246    -99    15.3   652.70  
 213   12:50     230   54.8    44    6.8   224    -99    15.3   652.70  
 213   13:00     314   54.1    44   11.3   244    -99    16.4   652.70  
 213   13:10     471   54.0    46    8.8   237    -99    15.9   652.50  
 213   13:20     554   54.8    48    6.9   220    -99    14.8   652.50  
 213   13:30     531   54.3    48    8.9   248    -99    18.2   652.50  
 213   13:40     860   55.5    45   10.1   251    -99    20.4   652.50  
 213   13:50     850   55.7    44   10.2   249    -99    15.9   652.50  
 213   14:00     890   56.3    45    8.9   240    -99    16.7   652.50  
 213   14:10     484   56.3    46    7.3   199    -99    15.7   651.80  
 213   14:20     291   55.2    46    8.1   244    -99    20.9   651.80  
 213   14:30     587   55.8    45   10.3   230    -99    22.2   651.80  
 213   14:40     663   56.1    44    9.4   234    -99    15.6   651.80  
 213   14:50     689   56.0    44    9.9   246    -99    16.4   651.80  
 213   15:00     443   55.8    42   10.0   237    -99    21.2   651.80  
 213   15:10     403   55.5    44    9.0   236    -99    19.1   651.70  
 213   15:20     234   54.6    45    7.8   210    -99    15.4   651.70  
 213   15:30      61   54.0    46    8.6   248    -99    18.9   651.70  
 213   15:40      86   53.5    45    6.4   241    -99    12.0   651.70  
 213   15:50     117   52.9    52    7.0   297    -99     9.9   651.70  
 213   16:00     174   52.9    53    4.8   311    -99     8.1   651.70  
 213   16:10     303   54.2    51    5.4   225    -99    11.4   651.70  
 213   16:20      84   53.2    52    6.2   243    -99    13.2   651.70  
 213   16:30      90   51.9    55    5.8   254    -99    12.8   651.70  
 213   16:40      62   51.4    58    6.7   243    -99    10.9   651.70  
 213   16:50      57   51.1    58    6.7   279    -99    11.3   651.70  
 213   17:00      42   50.1    59    9.3   291    -99    12.6   651.70  
 213   17:10      42   50.0    59    5.9   280    -99    10.9   651.90  
 213   17:20      47   50.3    59    4.2   236    -99     7.6   651.90  
 213   17:30      45   50.5    59    5.9   238    -99     9.4   651.90  
 213   17:40      34   50.3    59    5.2   273    -99     9.6   651.90  
 213   17:50      19   49.7    59    5.4   267    -99     8.2   651.90  
 213   18:00       4   49.2    60    5.8   284    -99     8.5   651.90  
 213   18:10       1   48.9    61    5.8   310    -99    10.2   652.10  
 213   18:20       0   49.1    61    2.5   235    -99     5.1   652.10  
 213   18:30       0   49.1    63    2.0    95    -99     4.2   652.10  
 213   18:40       0   48.8    65    3.2    50    -99     5.6   652.10  
 213   18:50       0   48.6    65    2.4    42    -99     4.5   652.10  
 213   19:00       0   48.4    65    1.4    49    -99     2.1   652.10  
 213   19:10       0   48.1    65    2.5    45    -99     3.9   652.40  
 213   19:20       0   47.9    65    1.7    39    -99     2.8   652.40  
 213   19:30       0   47.7    66    1.3    57    -99     2.6   652.40  
 213   19:40       0   47.6    65    2.0    53    -99     3.7   652.40  
 213   19:50       0   47.2    66    4.0    58    -99     7.7   652.40  
 213   20:00       0   46.5    64    3.3    30    -99     6.6   652.40  
 213   20:10       0   46.0    65    2.6    30    -99     4.0   652.50  
 213   20:20       0   45.9    65    2.7    19    -99     3.9   652.50  
 213   20:30       0   46.2    63    2.7    32    -99     3.9   652.50  
 213   20:40       0   46.3    62    2.6    22    -99     3.8   652.50  
 213   20:50       0   46.5    61    2.0    26    -99     3.5   652.50  
 213   21:00       0   46.2    61    2.0    32    -99     3.5   652.50  
 213   21:10       0   45.7    63    4.4    49    -99     6.8   652.40  
 213   21:20       0   45.1    63    4.6    43    -99     8.4   652.40  
 213   21:30       0   44.9    64    2.0    16    -99     4.2   652.40  
 213   21:40       0   44.6    65    0.3   218    -99     2.3   652.40  
 213   21:50       0   44.6    65    0.6    10    -99     3.0   652.40  
 213   22:00       0   45.1    63    2.0    58    -99     6.0   652.40  
 213   22:10       0   44.1    67    1.3   308    -99     3.0   652.40  
 213   22:20       0   44.5    65    1.5    28    -99     3.2   652.40  
 213   22:30       0   45.0    64    1.2     1    -99     2.2   652.40  
 213   22:40       0   44.7    65    0.1   175    -99     1.0   652.40  
 213   22:50       0   44.3    67    1.7   235    -99     2.8   652.40  
 213   23:00       0   44.5    68    2.0   210    -99     3.3   652.40  
 213   23:10       0   44.2    69    1.5   197    -99     3.4   652.20  
 213   23:20       0   43.6    71    1.4   214    -99     2.9   652.20  
 213   23:30       0   43.7    70    2.6   239    -99     4.5   652.20  
 213   23:40       0   44.0    69    2.6   247    -99     3.9   652.20  

Return to Barcroft Research Lab graphs page.


Western Regional Climate Center,wrcc@dri.edu